sensor_id;sensor_type;location;lat;lon;timestamp;pressure;altitude;pressure_sealevel;temperature;humidity
66479;BME280;53294;47.912;13.526;2023-02-19T00:01:25;96586.94;;;11.39;64.83
66479;BME280;53294;47.912;13.526;2023-02-19T00:03:58;96577.28;;;11.57;64.47
66479;BME280;53294;47.912;13.526;2023-02-19T00:06:27;96579.47;;;11.55;64.24
66479;BME280;53294;47.912;13.526;2023-02-19T00:08:54;96583.63;;;11.47;64.48
66479;BME280;53294;47.912;13.526;2023-02-19T00:11:25;96574.16;;;11.68;63.51
66479;BME280;53294;47.912;13.526;2023-02-19T00:13:54;96571.59;;;11.77;63.22
66479;BME280;53294;47.912;13.526;2023-02-19T00:16:26;96567.94;;;11.87;63.00
66479;BME280;53294;47.912;13.526;2023-02-19T00:18:54;96564.84;;;12.13;61.63
66479;BME280;53294;47.912;13.526;2023-02-19T00:21:22;96572.50;;;12.06;62.42
66479;BME280;53294;47.912;13.526;2023-02-19T00:23:50;96562.28;;;12.21;61.43
66479;BME280;53294;47.912;13.526;2023-02-19T00:26:17;96555.03;;;12.36;61.07
66479;BME280;53294;47.912;13.526;2023-02-19T00:28:45;96553.03;;;12.42;60.82
66479;BME280;53294;47.912;13.526;2023-02-19T00:33:42;96554.03;;;12.46;60.71
66479;BME280;53294;47.912;13.526;2023-02-19T00:36:09;96550.44;;;12.64;59.68
66479;BME280;53294;47.912;13.526;2023-02-19T00:38:37;96547.38;;;12.71;59.64
66479;BME280;53294;47.912;13.526;2023-02-19T00:41:04;96543.47;;;12.77;59.70
66479;BME280;53294;47.912;13.526;2023-02-19T00:43:46;96544.88;;;12.74;59.52
66479;BME280;53294;47.912;13.526;2023-02-19T00:46:19;96545.06;;;12.78;59.44
66479;BME280;53294;47.912;13.526;2023-02-19T00:48:46;96540.69;;;12.68;59.61
66479;BME280;53294;47.912;13.526;2023-02-19T00:51:13;96545.16;;;12.87;58.75
66479;BME280;53294;47.912;13.526;2023-02-19T00:53:40;96532.28;;;12.84;59.07
66479;BME280;53294;47.912;13.526;2023-02-19T00:56:07;96529.00;;;12.87;59.00
66479;BME280;53294;47.912;13.526;2023-02-19T00:58:34;96538.06;;;12.91;58.75
66479;BME280;53294;47.912;13.526;2023-02-19T01:01:01;96532.59;;;12.82;59.22
66479;BME280;53294;47.912;13.526;2023-02-19T01:03:28;96526.69;;;12.80;59.26
66479;BME280;53294;47.912;13.526;2023-02-19T01:05:54;96522.38;;;12.93;58.81
66479;BME280;53294;47.912;13.526;2023-02-19T01:08:21;96520.06;;;13.00;58.35
66479;BME280;53294;47.912;13.526;2023-02-19T01:10:48;96518.84;;;13.06;57.99
66479;BME280;53294;47.912;13.526;2023-02-19T01:13:15;96513.97;;;13.08;57.87
66479;BME280;53294;47.912;13.526;2023-02-19T01:15:42;96517.66;;;13.13;58.02
66479;BME280;53294;47.912;13.526;2023-02-19T01:18:10;96522.47;;;12.88;59.32
66479;BME280;53294;47.912;13.526;2023-02-19T01:20:39;96509.28;;;13.00;58.56
66479;BME280;53294;47.912;13.526;2023-02-19T01:23:06;96510.00;;;12.92;58.45
66479;BME280;53294;47.912;13.526;2023-02-19T01:25:33;96515.28;;;12.97;58.29
66479;BME280;53294;47.912;13.526;2023-02-19T01:28:00;96503.09;;;13.00;58.14
66479;BME280;53294;47.912;13.526;2023-02-19T01:30:26;96506.91;;;12.85;58.91
66479;BME280;53294;47.912;13.526;2023-02-19T01:32:53;96512.28;;;12.85;58.99
66479;BME280;53294;47.912;13.526;2023-02-19T01:35:20;96510.25;;;12.54;60.11
66479;BME280;53294;47.912;13.526;2023-02-19T01:37:46;96507.00;;;12.24;61.30
66479;BME280;53294;47.912;13.526;2023-02-19T01:40:13;96492.16;;;12.13;60.46
66479;BME280;53294;47.912;13.526;2023-02-19T01:42:42;96490.06;;;12.24;59.60
66479;BME280;53294;47.912;13.526;2023-02-19T01:45:23;96482.81;;;11.91;61.34
66479;BME280;53294;47.912;13.526;2023-02-19T01:48:00;96485.25;;;12.07;60.85
66479;BME280;53294;47.912;13.526;2023-02-19T01:50:35;96478.41;;;12.28;60.06
66479;BME280;53294;47.912;13.526;2023-02-19T01:53:04;96477.09;;;12.39;59.87
66479;BME280;53294;47.912;13.526;2023-02-19T01:55:33;96470.72;;;12.35;60.05
66479;BME280;53294;47.912;13.526;2023-02-19T01:58:00;96471.03;;;12.48;59.29
66479;BME280;53294;47.912;13.526;2023-02-19T02:00:28;96466.91;;;12.36;59.82
66479;BME280;53294;47.912;13.526;2023-02-19T02:02:57;96465.13;;;12.32;60.00
66479;BME280;53294;47.912;13.526;2023-02-19T02:05:34;96452.25;;;12.43;59.51
66479;BME280;53294;47.912;13.526;2023-02-19T02:08:04;96453.66;;;12.26;60.56
66479;BME280;53294;47.912;13.526;2023-02-19T02:10:50;96456.44;;;11.93;61.56
66479;BME280;53294;47.912;13.526;2023-02-19T02:13:17;96449.22;;;11.89;61.68
66479;BME280;53294;47.912;13.526;2023-02-19T02:15:53;96449.72;;;11.91;61.55
66479;BME280;53294;47.912;13.526;2023-02-19T02:31:57;96429.84;;;11.73;60.91
66479;BME280;53294;47.912;13.526;2023-02-19T02:34:32;96420.97;;;11.72;61.01
66479;BME280;53294;47.912;13.526;2023-02-19T02:37:01;96426.09;;;11.41;60.69
66479;BME280;53294;47.912;13.526;2023-02-19T02:39:29;96424.91;;;10.76;62.96
66479;BME280;53294;47.912;13.526;2023-02-19T02:41:58;96425.47;;;10.35;63.70
66479;BME280;53294;47.912;13.526;2023-02-19T02:44:43;96426.06;;;10.70;62.41
66479;BME280;53294;47.912;13.526;2023-02-19T02:47:33;96429.69;;;10.41;63.15
66479;BME280;53294;47.912;13.526;2023-02-19T02:50:42;96420.41;;;10.52;62.78
66479;BME280;53294;47.912;13.526;2023-02-19T02:53:20;96416.28;;;10.36;62.55
66479;BME280;53294;47.912;13.526;2023-02-19T02:56:09;96424.97;;;10.28;63.47
66479;BME280;53294;47.912;13.526;2023-02-19T02:58:36;96415.38;;;10.46;62.44
66479;BME280;53294;47.912;13.526;2023-02-19T03:01:21;96424.28;;;10.17;63.94
66479;BME280;53294;47.912;13.526;2023-02-19T03:04:32;96408.84;;;10.28;62.87
66479;BME280;53294;47.912;13.526;2023-02-19T03:06:59;96414.59;;;10.21;63.09
66479;BME280;53294;47.912;13.526;2023-02-19T03:09:36;96417.25;;;10.45;62.44
66479;BME280;53294;47.912;13.526;2023-02-19T03:12:12;96407.75;;;10.34;61.84
66479;BME280;53294;47.912;13.526;2023-02-19T03:15:02;96409.63;;;10.33;62.55
66479;BME280;53294;47.912;13.526;2023-02-19T03:17:56;96407.97;;;10.37;62.61
66479;BME280;53294;47.912;13.526;2023-02-19T03:20:49;96401.84;;;10.32;62.66
66479;BME280;53294;47.912;13.526;2023-02-19T03:23:18;96404.97;;;10.39;62.06
66479;BME280;53294;47.912;13.526;2023-02-19T03:25:46;96409.28;;;10.40;61.88
66479;BME280;53294;47.912;13.526;2023-02-19T03:28:33;96409.91;;;10.32;61.84
66479;BME280;53294;47.912;13.526;2023-02-19T03:31:21;96401.44;;;10.19;62.15
66479;BME280;53294;47.912;13.526;2023-02-19T03:33:53;96395.41;;;10.33;61.80
66479;BME280;53294;47.912;13.526;2023-02-19T03:36:22;96376.56;;;10.38;61.96
66479;BME280;53294;47.912;13.526;2023-02-19T03:39:05;96396.50;;;10.27;61.62
66479;BME280;53294;47.912;13.526;2023-02-19T03:41:36;96377.84;;;10.40;61.42
66479;BME280;53294;47.912;13.526;2023-02-19T03:47:18;96377.91;;;10.35;62.62
66479;BME280;53294;47.912;13.526;2023-02-19T03:55:10;96384.06;;;10.36;62.34
66479;BME280;53294;47.912;13.526;2023-02-19T03:57:46;96368.53;;;10.33;61.72
66479;BME280;53294;47.912;13.526;2023-02-19T04:00:17;96366.69;;;10.28;62.03
66479;BME280;53294;47.912;13.526;2023-02-19T04:02:52;96362.47;;;10.46;61.33
66479;BME280;53294;47.912;13.526;2023-02-19T04:05:28;96361.03;;;10.35;61.41
66479;BME280;53294;47.912;13.526;2023-02-19T04:08:05;96362.91;;;10.53;61.41
66479;BME280;53294;47.912;13.526;2023-02-19T04:10:35;96359.69;;;10.51;60.52
66479;BME280;53294;47.912;13.526;2023-02-19T04:13:08;96367.75;;;10.51;60.73
66479;BME280;53294;47.912;13.526;2023-02-19T04:15:39;96358.72;;;10.47;60.71
66479;BME280;53294;47.912;13.526;2023-02-19T04:18:13;96359.41;;;10.34;61.55
66479;BME280;53294;47.912;13.526;2023-02-19T04:20:43;96350.94;;;10.46;61.18
66479;BME280;53294;47.912;13.526;2023-02-19T04:23:12;96358.13;;;10.50;61.11
66479;BME280;53294;47.912;13.526;2023-02-19T04:25:43;96367.91;;;10.60;61.02
66479;BME280;53294;47.912;13.526;2023-02-19T04:28:13;96369.88;;;10.54;61.45
66479;BME280;53294;47.912;13.526;2023-02-19T04:30:40;96364.50;;;10.54;61.86
66479;BME280;53294;47.912;13.526;2023-02-19T04:33:07;96369.78;;;10.40;62.41
66479;BME280;53294;47.912;13.526;2023-02-19T04:35:33;96394.78;;;10.41;63.00
66479;BME280;53294;47.912;13.526;2023-02-19T04:38:00;96400.47;;;10.34;63.50
66479;BME280;53294;47.912;13.526;2023-02-19T04:40:27;96399.09;;;10.37;64.01
66479;BME280;53294;47.912;13.526;2023-02-19T04:42:53;96404.06;;;10.49;63.62
66479;BME280;53294;47.912;13.526;2023-02-19T04:45:20;96417.13;;;10.55;63.76
66479;BME280;53294;47.912;13.526;2023-02-19T04:47:47;96398.13;;;10.52;64.80
66479;BME280;53294;47.912;13.526;2023-02-19T04:50:14;96393.34;;;10.00;67.33
66479;BME280;53294;47.912;13.526;2023-02-19T04:52:40;96396.56;;;10.02;67.74
66479;BME280;53294;47.912;13.526;2023-02-19T04:55:07;96392.06;;;9.93;66.79
66479;BME280;53294;47.912;13.526;2023-02-19T04:57:34;96393.00;;;9.59;68.22
66479;BME280;53294;47.912;13.526;2023-02-19T05:00:01;96396.41;;;9.35;69.66
66479;BME280;53294;47.912;13.526;2023-02-19T05:02:28;96387.34;;;9.31;69.98
66479;BME280;53294;47.912;13.526;2023-02-19T05:04:55;96378.19;;;9.32;70.33
66479;BME280;53294;47.912;13.526;2023-02-19T05:07:21;96370.06;;;9.13;70.89
66479;BME280;53294;47.912;13.526;2023-02-19T05:09:48;96371.47;;;9.05;71.18
66479;BME280;53294;47.912;13.526;2023-02-19T05:12:14;96370.97;;;9.03;71.06
66479;BME280;53294;47.912;13.526;2023-02-19T05:14:41;96374.81;;;8.92;71.80
66479;BME280;53294;47.912;13.526;2023-02-19T05:17:08;96363.94;;;8.73;72.11
66479;BME280;53294;47.912;13.526;2023-02-19T05:19:34;96371.13;;;8.83;71.75
66479;BME280;53294;47.912;13.526;2023-02-19T05:22:01;96359.41;;;8.68;72.27
66479;BME280;53294;47.912;13.526;2023-02-19T05:24:27;96363.97;;;8.68;72.20
66479;BME280;53294;47.912;13.526;2023-02-19T05:26:55;96364.03;;;8.57;71.85
66479;BME280;53294;47.912;13.526;2023-02-19T05:29:22;96386.75;;;8.65;72.03
66479;BME280;53294;47.912;13.526;2023-02-19T05:31:48;96365.25;;;8.75;71.60
66479;BME280;53294;47.912;13.526;2023-02-19T05:34:15;96388.31;;;8.71;72.32
66479;BME280;53294;47.912;13.526;2023-02-19T05:36:42;96398.50;;;8.69;73.22
66479;BME280;53294;47.912;13.526;2023-02-19T05:39:10;96380.97;;;8.48;74.35
66479;BME280;53294;47.912;13.526;2023-02-19T05:41:37;96392.75;;;8.47;74.70
66479;BME280;53294;47.912;13.526;2023-02-19T05:44:04;96388.44;;;8.51;74.90
66479;BME280;53294;47.912;13.526;2023-02-19T05:46:31;96373.72;;;8.43;74.90
66479;BME280;53294;47.912;13.526;2023-02-19T05:48:58;96386.34;;;8.37;75.25
66479;BME280;53294;47.912;13.526;2023-02-19T05:51:25;96372.94;;;8.37;75.11
66479;BME280;53294;47.912;13.526;2023-02-19T05:53:52;96379.94;;;8.33;75.05
66479;BME280;53294;47.912;13.526;2023-02-19T05:58:48;96406.75;;;8.23;75.52
66479;BME280;53294;47.912;13.526;2023-02-19T06:01:16;96400.59;;;8.22;75.15
66479;BME280;53294;47.912;13.526;2023-02-19T06:03:43;96403.56;;;8.21;75.64
66479;BME280;53294;47.912;13.526;2023-02-19T06:06:14;96397.16;;;8.17;76.08
66479;BME280;53294;47.912;13.526;2023-02-19T06:08:41;96417.78;;;8.06;76.53
66479;BME280;53294;47.912;13.526;2023-02-19T06:11:07;96425.81;;;8.11;76.46
66479;BME280;53294;47.912;13.526;2023-02-19T06:13:35;96421.56;;;8.05;76.85
66479;BME280;53294;47.912;13.526;2023-02-19T06:16:06;96431.44;;;8.04;77.10
66479;BME280;53294;47.912;13.526;2023-02-19T06:18:33;96431.47;;;7.89;77.76
66479;BME280;53294;47.912;13.526;2023-02-19T06:21:05;96426.69;;;7.91;77.98
66479;BME280;53294;47.912;13.526;2023-02-19T06:23:32;96436.06;;;7.83;78.43
66479;BME280;53294;47.912;13.526;2023-02-19T06:26:20;96448.34;;;7.84;79.27
66479;BME280;53294;47.912;13.526;2023-02-19T06:28:49;96442.72;;;7.81;80.05
66479;BME280;53294;47.912;13.526;2023-02-19T06:31:17;96461.47;;;7.76;80.53
66479;BME280;53294;47.912;13.526;2023-02-19T06:33:45;96459.84;;;7.75;80.93
66479;BME280;53294;47.912;13.526;2023-02-19T06:36:14;96451.59;;;7.71;80.83
66479;BME280;53294;47.912;13.526;2023-02-19T06:38:41;96458.28;;;7.63;80.90
66479;BME280;53294;47.912;13.526;2023-02-19T06:41:09;96458.28;;;7.63;81.21
66479;BME280;53294;47.912;13.526;2023-02-19T06:43:37;96479.13;;;7.66;81.50
66479;BME280;53294;47.912;13.526;2023-02-19T06:46:05;96478.84;;;7.63;81.89
66479;BME280;53294;47.912;13.526;2023-02-19T06:48:33;96474.06;;;7.65;82.42
66479;BME280;53294;47.912;13.526;2023-02-19T06:50:59;96472.97;;;7.61;82.57
66479;BME280;53294;47.912;13.526;2023-02-19T06:53:26;96478.56;;;7.64;82.90
66479;BME280;53294;47.912;13.526;2023-02-19T06:56:06;96483.41;;;7.72;82.08
66479;BME280;53294;47.912;13.526;2023-02-19T06:58:33;96479.38;;;7.70;82.78
66479;BME280;53294;47.912;13.526;2023-02-19T07:01:00;96475.38;;;7.67;82.26
66479;BME280;53294;47.912;13.526;2023-02-19T07:03:27;96468.44;;;7.56;82.83
66479;BME280;53294;47.912;13.526;2023-02-19T07:05:53;96479.16;;;7.46;84.29
66479;BME280;53294;47.912;13.526;2023-02-19T07:08:20;96471.66;;;7.48;83.55
66479;BME280;53294;47.912;13.526;2023-02-19T07:10:54;96481.81;;;7.51;83.58
66479;BME280;53294;47.912;13.526;2023-02-19T07:13:22;96478.06;;;7.47;84.16
66479;BME280;53294;47.912;13.526;2023-02-19T07:15:49;96495.19;;;7.46;84.58
66479;BME280;53294;47.912;13.526;2023-02-19T07:18:18;96484.75;;;7.49;83.94
66479;BME280;53294;47.912;13.526;2023-02-19T07:20:44;96490.34;;;7.53;84.22
66479;BME280;53294;47.912;13.526;2023-02-19T07:23:11;96489.84;;;7.51;84.21
66479;BME280;53294;47.912;13.526;2023-02-19T07:25:38;96494.09;;;7.42;84.73
66479;BME280;53294;47.912;13.526;2023-02-19T07:28:05;96483.41;;;7.42;85.30
66479;BME280;53294;47.912;13.526;2023-02-19T07:30:32;96495.72;;;7.43;85.84
66479;BME280;53294;47.912;13.526;2023-02-19T07:32:59;96504.00;;;7.46;85.67
66479;BME280;53294;47.912;13.526;2023-02-19T07:35:26;96502.66;;;7.49;85.50
66479;BME280;53294;47.912;13.526;2023-02-19T07:37:53;96495.69;;;7.53;85.09
66479;BME280;53294;47.912;13.526;2023-02-19T07:40:20;96497.31;;;7.54;84.61
66479;BME280;53294;47.912;13.526;2023-02-19T07:42:46;96502.66;;;7.59;84.37
66479;BME280;53294;47.912;13.526;2023-02-19T07:45:13;96494.63;;;7.59;84.25
66479;BME280;53294;47.912;13.526;2023-02-19T07:47:40;96517.06;;;7.58;84.59
66479;BME280;53294;47.912;13.526;2023-02-19T07:50:07;96508.00;;;7.69;84.48
66479;BME280;53294;47.912;13.526;2023-02-19T07:52:33;96509.59;;;7.65;84.72
66479;BME280;53294;47.912;13.526;2023-02-19T07:55:00;96520.31;;;7.76;84.69
66479;BME280;53294;47.912;13.526;2023-02-19T07:57:27;96511.19;;;7.77;84.41
66479;BME280;53294;47.912;13.526;2023-02-19T07:59:54;96512.56;;;7.74;85.07
66479;BME280;53294;47.912;13.526;2023-02-19T08:02:21;96511.72;;;7.84;84.01
66479;BME280;53294;47.912;13.526;2023-02-19T08:05:07;96521.88;;;7.87;83.83
66479;BME280;53294;47.912;13.526;2023-02-19T08:07:34;96526.16;;;7.83;83.86
66479;BME280;53294;47.912;13.526;2023-02-19T08:10:03;96527.25;;;7.82;84.20
66479;BME280;53294;47.912;13.526;2023-02-19T08:13:13;96526.19;;;7.88;84.36
66479;BME280;53294;47.912;13.526;2023-02-19T08:18:15;96511.72;;;7.94;84.04
66479;BME280;53294;47.912;13.526;2023-02-19T08:20:43;96519.47;;;8.01;83.14
66479;BME280;53294;47.912;13.526;2023-02-19T08:23:10;96533.66;;;8.06;83.02
66479;BME280;53294;47.912;13.526;2023-02-19T08:25:38;96527.75;;;8.15;82.81
66479;BME280;53294;47.912;13.526;2023-02-19T08:28:06;96537.88;;;8.23;82.25
66479;BME280;53294;47.912;13.526;2023-02-19T08:30:35;96530.91;;;8.32;81.96
66479;BME280;53294;47.912;13.526;2023-02-19T08:33:05;96533.03;;;8.35;81.27
66479;BME280;53294;47.912;13.526;2023-02-19T08:35:33;96538.94;;;8.32;80.46
66479;BME280;53294;47.912;13.526;2023-02-19T08:38:02;96535.72;;;8.35;80.40
66479;BME280;53294;47.912;13.526;2023-02-19T08:40:30;96534.63;;;8.41;80.11
66479;BME280;53294;47.912;13.526;2023-02-19T08:43:08;96559.25;;;8.38;79.54
66479;BME280;53294;47.912;13.526;2023-02-19T08:45:42;96550.16;;;8.34;79.70
66479;BME280;53294;47.912;13.526;2023-02-19T08:48:10;96549.38;;;8.34;80.48
66479;BME280;53294;47.912;13.526;2023-02-19T08:50:37;96536.78;;;8.34;79.81
66479;BME280;53294;47.912;13.526;2023-02-19T08:53:05;96545.34;;;8.36;79.21
66479;BME280;53294;47.912;13.526;2023-02-19T08:55:32;96550.69;;;8.31;78.52
66479;BME280;53294;47.912;13.526;2023-02-19T08:57:59;96558.19;;;8.34;79.08
66479;BME280;53294;47.912;13.526;2023-02-19T09:00:26;96564.06;;;8.41;79.80
66479;BME280;53294;47.912;13.526;2023-02-19T09:02:52;96560.84;;;8.50;79.08
66479;BME280;53294;47.912;13.526;2023-02-19T09:05:19;96543.97;;;8.54;79.01
66479;BME280;53294;47.912;13.526;2023-02-19T09:07:46;96548.25;;;8.66;78.39
66479;BME280;53294;47.912;13.526;2023-02-19T09:10:13;96547.16;;;8.72;77.82
66479;BME280;53294;47.912;13.526;2023-02-19T09:12:40;96543.09;;;8.79;77.74
66479;BME280;53294;47.912;13.526;2023-02-19T09:15:07;96555.69;;;8.74;76.77
66479;BME280;53294;47.912;13.526;2023-02-19T09:17:34;96541.72;;;8.82;76.91
66479;BME280;53294;47.912;13.526;2023-02-19T09:20:00;96566.16;;;8.70;79.02
66479;BME280;53294;47.912;13.526;2023-02-19T09:22:27;96564.81;;;8.73;79.23
66479;BME280;53294;47.912;13.526;2023-02-19T09:24:54;96567.75;;;8.71;79.47
66479;BME280;53294;47.912;13.526;2023-02-19T09:27:20;96585.41;;;8.77;79.41
66479;BME280;53294;47.912;13.526;2023-02-19T09:29:47;96586.47;;;8.82;79.70
66479;BME280;53294;47.912;13.526;2023-02-19T09:32:14;96588.63;;;8.74;79.74
66479;BME280;53294;47.912;13.526;2023-02-19T09:34:43;96598.00;;;8.77;79.96
66479;BME280;53294;47.912;13.526;2023-02-19T09:37:09;96612.22;;;8.72;79.87
66479;BME280;53294;47.912;13.526;2023-02-19T09:39:36;96594.53;;;8.71;79.98
66479;BME280;53294;47.912;13.526;2023-02-19T09:42:11;96613.88;;;8.32;78.21
66479;BME280;53294;47.912;13.526;2023-02-19T09:44:43;96612.84;;;8.13;78.88
66479;BME280;53294;47.912;13.526;2023-02-19T09:47:22;96612.28;;;7.90;79.32
66479;BME280;53294;47.912;13.526;2023-02-19T09:49:52;96621.38;;;7.73;79.67
66479;BME280;53294;47.912;13.526;2023-02-19T09:57:43;96626.75;;;7.79;80.25
66479;BME280;53294;47.912;13.526;2023-02-19T10:02:38;96637.69;;;7.87;80.62
66479;BME280;53294;47.912;13.526;2023-02-19T10:05:15;96635.03;;;7.93;80.92
66479;BME280;53294;47.912;13.526;2023-02-19T10:07:47;96638.53;;;8.03;80.58
66479;BME280;53294;47.912;13.526;2023-02-19T10:12:49;96617.09;;;7.93;81.17
66479;BME280;53294;47.912;13.526;2023-02-19T10:15:29;96622.19;;;8.10;80.39
66479;BME280;53294;47.912;13.526;2023-02-19T10:17:57;96635.31;;;8.22;80.39
66479;BME280;53294;47.912;13.526;2023-02-19T10:20:25;96624.06;;;8.15;80.71
66479;BME280;53294;47.912;13.526;2023-02-19T10:23:05;96632.09;;;8.30;80.29
66479;BME280;53294;47.912;13.526;2023-02-19T10:25:33;96628.31;;;8.31;79.69
66479;BME280;53294;47.912;13.526;2023-02-19T10:28:01;96639.56;;;8.38;80.04
66479;BME280;53294;47.912;13.526;2023-02-19T10:30:33;96642.28;;;8.49;79.32
66479;BME280;53294;47.912;13.526;2023-02-19T10:33:12;96649.47;;;8.48;79.58
66479;BME280;53294;47.912;13.526;2023-02-19T10:35:54;96634.22;;;8.43;80.08
66479;BME280;53294;47.912;13.526;2023-02-19T10:38:38;96641.19;;;8.50;80.01
66479;BME280;53294;47.912;13.526;2023-02-19T10:41:17;96642.78;;;8.51;79.70
66479;BME280;53294;47.912;13.526;2023-02-19T10:44:12;96634.19;;;8.59;79.67
66479;BME280;53294;47.912;13.526;2023-02-19T10:46:42;96639.53;;;8.79;79.30
66479;BME280;53294;47.912;13.526;2023-02-19T10:49:22;96637.88;;;8.84;78.49
66479;BME280;53294;47.912;13.526;2023-02-19T10:51:51;96640.03;;;8.87;78.54
66479;BME280;53294;47.912;13.526;2023-02-19T10:54:24;96644.03;;;8.89;78.54
66479;BME280;53294;47.912;13.526;2023-02-19T10:56:51;96651.78;;;9.01;78.69
66479;BME280;53294;47.912;13.526;2023-02-19T10:59:27;96656.03;;;9.07;78.00
66479;BME280;53294;47.912;13.526;2023-02-19T11:04:24;96644.50;;;9.07;77.77
66479;BME280;53294;47.912;13.526;2023-02-19T11:06:51;96654.91;;;9.24;77.27
66479;BME280;53294;47.912;13.526;2023-02-19T11:09:33;96642.72;;;8.92;76.57
66479;BME280;53294;47.912;13.526;2023-02-19T11:12:03;96655.00;;;8.93;76.75
66479;BME280;53294;47.912;13.526;2023-02-19T11:14:32;96661.44;;;8.87;76.65
66479;BME280;53294;47.912;13.526;2023-02-19T11:17:01;96643.28;;;8.78;76.94
66479;BME280;53294;47.912;13.526;2023-02-19T11:19:38;96644.34;;;8.83;76.03
66479;BME280;53294;47.912;13.526;2023-02-19T11:22:37;96618.66;;;8.66;73.76
66479;BME280;53294;47.912;13.526;2023-02-19T11:28:06;96632.34;;;8.54;74.66
66479;BME280;53294;47.912;13.526;2023-02-19T11:33:24;96626.97;;;8.54;73.97
66479;BME280;53294;47.912;13.526;2023-02-19T11:35:58;96631.78;;;8.42;74.17
66479;BME280;53294;47.912;13.526;2023-02-19T11:38:25;96633.97;;;8.50;74.95
66479;BME280;53294;47.912;13.526;2023-02-19T11:41:03;96632.03;;;8.71;75.35
66479;BME280;53294;47.912;13.526;2023-02-19T11:49:10;96598.53;;;9.39;73.39
66479;BME280;53294;47.912;13.526;2023-02-19T11:52:16;96603.88;;;9.39;73.89
66479;BME280;53294;47.912;13.526;2023-02-19T11:55:05;96608.38;;;9.54;72.78
66479;BME280;53294;47.912;13.526;2023-02-19T11:57:43;96621.28;;;9.47;72.92
66479;BME280;53294;47.912;13.526;2023-02-19T12:00:26;96621.09;;;9.33;72.85
66479;BME280;53294;47.912;13.526;2023-02-19T12:06:16;96611.94;;;9.79;72.77
66479;BME280;53294;47.912;13.526;2023-02-19T12:11:50;96636.31;;;9.87;70.44
66479;BME280;53294;47.912;13.526;2023-02-19T12:14:46;96640.16;;;9.76;69.52
66479;BME280;53294;47.912;13.526;2023-02-19T12:17:33;96626.09;;;9.89;69.96
66479;BME280;53294;47.912;13.526;2023-02-19T12:22:51;96628.59;;;10.15;68.40
66479;BME280;53294;47.912;13.526;2023-02-19T12:36:18;96624.16;;;11.70;62.79
66479;BME280;53294;47.912;13.526;2023-02-19T12:41:48;96625.00;;;11.08;61.12
66479;BME280;53294;47.912;13.526;2023-02-19T12:44:36;96627.03;;;11.16;60.61
66479;BME280;53294;47.912;13.526;2023-02-19T12:47:04;96634.03;;;11.17;60.54
66479;BME280;53294;47.912;13.526;2023-02-19T12:49:36;96630.34;;;11.51;60.72
66479;BME280;53294;47.912;13.526;2023-02-19T12:52:17;96630.59;;;11.74;60.52
66479;BME280;53294;47.912;13.526;2023-02-19T12:54:49;96633.84;;;11.90;59.44
66479;BME280;53294;47.912;13.526;2023-02-19T12:57:27;96617.28;;;12.01;58.60
66479;BME280;53294;47.912;13.526;2023-02-19T13:02:40;96628.84;;;11.83;59.83
66479;BME280;53294;47.912;13.526;2023-02-19T13:05:27;96619.94;;;11.63;59.94
66479;BME280;53294;47.912;13.526;2023-02-19T13:10:33;96623.19;;;11.65;59.46
66479;BME280;53294;47.912;13.526;2023-02-19T13:13:05;96620.19;;;11.67;60.14
66479;BME280;53294;47.912;13.526;2023-02-19T13:15:36;96623.81;;;11.38;60.00
66479;BME280;53294;47.912;13.526;2023-02-19T13:18:11;96618.25;;;11.29;60.23
66479;BME280;53294;47.912;13.526;2023-02-19T13:20:42;96629.56;;;11.07;60.04
66479;BME280;53294;47.912;13.526;2023-02-19T13:23:19;96637.66;;;10.83;61.11
66479;BME280;53294;47.912;13.526;2023-02-19T13:29:27;96642.81;;;10.50;62.05
66479;BME280;53294;47.912;13.526;2023-02-19T13:38:17;96643.47;;;10.37;63.71
66479;BME280;53294;47.912;13.526;2023-02-19T13:40:55;96633.34;;;10.82;63.73
66479;BME280;53294;47.912;13.526;2023-02-19T13:43:25;96629.97;;;11.39;61.04
66479;BME280;53294;47.912;13.526;2023-02-19T13:45:58;96639.72;;;11.35;60.49
66479;BME280;53294;47.912;13.526;2023-02-19T13:48:29;96645.19;;;11.48;60.60
66479;BME280;53294;47.912;13.526;2023-02-19T13:56:43;96653.47;;;11.09;60.85
66479;BME280;53294;47.912;13.526;2023-02-19T14:04:23;96671.63;;;10.00;66.30
66479;BME280;53294;47.912;13.526;2023-02-19T14:14:43;96674.38;;;9.95;68.27
66479;BME280;53294;47.912;13.526;2023-02-19T14:30:27;96700.25;;;9.70;65.89
66479;BME280;53294;47.912;13.526;2023-02-19T14:32:56;96674.66;;;9.38;65.53
66479;BME280;53294;47.912;13.526;2023-02-19T14:35:40;96681.13;;;9.37;66.11
66479;BME280;53294;47.912;13.526;2023-02-19T14:38:19;96691.81;;;9.42;66.32
66479;BME280;53294;47.912;13.526;2023-02-19T14:40:47;96689.72;;;9.29;66.01
66479;BME280;53294;47.912;13.526;2023-02-19T14:43:16;96677.97;;;9.14;66.01
66479;BME280;53294;47.912;13.526;2023-02-19T14:45:55;96674.03;;;8.91;66.67
66479;BME280;53294;47.912;13.526;2023-02-19T14:48:37;96686.53;;;9.16;66.26
66479;BME280;53294;47.912;13.526;2023-02-19T14:51:14;96696.72;;;9.20;66.22
66479;BME280;53294;47.912;13.526;2023-02-19T14:53:43;96701.03;;;9.15;66.68
66479;BME280;53294;47.912;13.526;2023-02-19T14:56:23;96694.59;;;9.11;66.58
66479;BME280;53294;47.912;13.526;2023-02-19T15:01:33;96708.47;;;9.29;66.13
66479;BME280;53294;47.912;13.526;2023-02-19T15:03:59;96700.09;;;9.46;65.43
66479;BME280;53294;47.912;13.526;2023-02-19T15:06:27;96703.06;;;9.49;65.12
66479;BME280;53294;47.912;13.526;2023-02-19T15:08:57;96695.91;;;9.24;65.83
66479;BME280;53294;47.912;13.526;2023-02-19T15:11:27;96695.63;;;9.26;65.84
66479;BME280;53294;47.912;13.526;2023-02-19T15:13:59;96697.81;;;9.19;66.12
66479;BME280;53294;47.912;13.526;2023-02-19T15:16:28;96706.41;;;9.05;66.47
66479;BME280;53294;47.912;13.526;2023-02-19T15:18:57;96703.47;;;9.07;66.74
66479;BME280;53294;47.912;13.526;2023-02-19T15:21:26;96706.97;;;9.02;66.99
66479;BME280;53294;47.912;13.526;2023-02-19T15:24:00;96725.16;;;9.10;66.54